createdAt,value
2023-04-29T00:01:20.242Z,99869.34
2023-04-29T00:03:48.379Z,99870.00
2023-04-29T00:06:17.019Z,99861.13
2023-04-29T00:08:45.143Z,99872.66
2023-04-29T00:11:13.180Z,99870.41
2023-04-29T00:13:41.738Z,99867.66
2023-04-29T00:16:11.463Z,99870.06
2023-04-29T00:18:39.475Z,99866.81
2023-04-29T00:21:07.644Z,99863.72
2023-04-29T00:23:36.116Z,99865.56
2023-04-29T00:26:04.305Z,99865.25
2023-04-29T00:28:32.226Z,99863.47
2023-04-29T00:31:00.154Z,99861.78
2023-04-29T00:33:29.595Z,99862.84
2023-04-29T00:35:57.520Z,99867.75
2023-04-29T00:38:25.478Z,99867.47
2023-04-29T00:40:53.547Z,99869.34
2023-04-29T00:43:21.731Z,99866.28
2023-04-29T00:45:50.999Z,99870.75
2023-04-29T00:48:19.014Z,99869.97
2023-04-29T00:50:48.365Z,99865.69
2023-04-29T00:53:16.323Z,99869.75
2023-04-29T00:55:45.589Z,99866.63
2023-04-29T00:58:13.802Z,99863.88
2023-04-29T01:00:44.177Z,99859.78
2023-04-29T01:03:12.280Z,99852.03
2023-04-29T01:05:40.523Z,99867.72
2023-04-29T01:08:19.814Z,99865.84
2023-04-29T01:10:55.576Z,99855.97
2023-04-29T01:13:30.880Z,99855.00
2023-04-29T01:16:03.788Z,99865.78
2023-04-29T01:18:37.225Z,99867.44
2023-04-29T01:21:05.440Z,99863.41
2023-04-29T01:23:34.780Z,99854.94
2023-04-29T01:26:03.043Z,99851.84
2023-04-29T01:28:47.546Z,99859.06
2023-04-29T01:31:21.082Z,99852.84
2023-04-29T01:33:56.686Z,99845.66
2023-04-29T01:36:35.546Z,99856.25
2023-04-29T01:39:15.907Z,99846.38
2023-04-29T01:41:46.341Z,99845.50
2023-04-29T01:44:18.014Z,99837.22
2023-04-29T01:46:52.006Z,99841.72
2023-04-29T01:49:22.055Z,99844.66
2023-04-29T01:51:49.956Z,99837.41
2023-04-29T01:54:19.622Z,99837.41
2023-04-29T01:56:47.474Z,99832.69
2023-04-29T01:59:15.436Z,99844.69
2023-04-29T02:01:43.785Z,99835.34
2023-04-29T02:04:11.800Z,99841.41
2023-04-29T02:06:39.745Z,99838.63
2023-04-29T02:09:07.742Z,99840.22
2023-04-29T02:11:37.181Z,99844.41
2023-04-29T02:14:05.114Z,99844.19
2023-04-29T02:16:33.043Z,99844.16
2023-04-29T02:19:00.997Z,99847.22
2023-04-29T02:21:28.861Z,99840.25
2023-04-29T02:23:56.931Z,99840.44
2023-04-29T02:26:24.926Z,99847.97
2023-04-29T02:28:54.932Z,99848.31
2023-04-29T02:31:22.874Z,99839.16
2023-04-29T02:33:50.893Z,99835.50
2023-04-29T02:36:18.861Z,99829.94
2023-04-29T02:38:46.758Z,99824.63
2023-04-29T02:41:18.165Z,99823.41
2023-04-29T02:43:46.582Z,99820.72
2023-04-29T02:46:16.082Z,99831.88
2023-04-29T02:48:44.001Z,99834.66
2023-04-29T02:51:11.958Z,99831.94
2023-04-29T02:53:40.095Z,99835.38
2023-04-29T02:56:08.109Z,99845.22
2023-04-29T02:58:36.058Z,99836.63
2023-04-29T03:01:04.966Z,99847.63
2023-04-29T03:03:34.456Z,99843.38
2023-04-29T03:06:02.426Z,99846.16
2023-04-29T03:08:30.467Z,99840.09
2023-04-29T03:10:58.797Z,99847.00
2023-04-29T03:13:26.722Z,99848.28
2023-04-29T03:15:54.717Z,99846.59
2023-04-29T03:18:22.574Z,99844.56
2023-04-29T03:20:51.834Z,99855.31
2023-04-29T03:23:19.800Z,99852.66
2023-04-29T03:25:47.753Z,99852.81
2023-04-29T03:28:16.188Z,99858.34
2023-04-29T03:30:44.093Z,99853.78
2023-04-29T03:33:12.050Z,99855.06
2023-04-29T03:35:39.974Z,99856.13
2023-04-29T03:38:09.302Z,99861.81
2023-04-29T03:40:37.221Z,99866.66
2023-04-29T03:43:05.172Z,99869.84
2023-04-29T03:45:33.110Z,99859.59
2023-04-29T03:48:01.263Z,99877.28
2023-04-29T03:50:29.296Z,99879.28
2023-04-29T03:52:57.853Z,99878.72
2023-04-29T03:55:27.315Z,99878.56
2023-04-29T03:57:55.399Z,99883.25
2023-04-29T04:00:24.057Z,99890.31
2023-04-29T04:02:52.149Z,99887.16
2023-04-29T04:05:21.118Z,99886.59
2023-04-29T04:07:49.288Z,99882.75
2023-04-29T04:10:17.457Z,99889.16
2023-04-29T04:12:47.286Z,99891.38
2023-04-29T04:15:15.392Z,99888.56
2023-04-29T04:17:43.323Z,99890.91
2023-04-29T04:20:13.290Z,99887.63
2023-04-29T04:22:41.188Z,99895.50
2023-04-29T04:25:10.460Z,99898.47
2023-04-29T04:27:38.363Z,99892.22
2023-04-29T04:30:09.098Z,99897.34
2023-04-29T04:32:37.013Z,99892.97
2023-04-29T04:35:05.363Z,99886.56
2023-04-29T04:37:33.750Z,99887.63
2023-04-29T04:40:01.622Z,99887.03
2023-04-29T04:42:29.535Z,99889.97
2023-04-29T04:44:57.465Z,99882.28
2023-04-29T04:47:26.883Z,99892.91
2023-04-29T04:49:55.100Z,99888.22
2023-04-29T04:52:23.626Z,99902.38
2023-04-29T04:54:51.654Z,99910.56
2023-04-29T04:57:19.568Z,99901.81
2023-04-29T04:59:47.559Z,99902.22
2023-04-29T05:02:15.488Z,99913.94
2023-04-29T05:04:44.850Z,99908.91
2023-04-29T05:07:12.931Z,99906.94
2023-04-29T05:09:40.905Z,99913.88
2023-04-29T05:12:08.816Z,99918.47
2023-04-29T05:14:36.711Z,99915.44
2023-04-29T05:17:04.666Z,99912.03
2023-04-29T05:19:32.567Z,99911.31
2023-04-29T05:22:01.886Z,99907.34
2023-04-29T05:24:30.437Z,99908.59
2023-04-29T05:26:58.407Z,99894.19
2023-04-29T05:29:27.316Z,99903.81
2023-04-29T05:31:55.252Z,99899.72
2023-04-29T05:34:23.206Z,99896.06
2023-04-29T05:36:51.071Z,99897.31
2023-04-29T05:39:20.545Z,99894.41
2023-04-29T05:41:48.452Z,99887.09
2023-04-29T05:44:16.364Z,99879.25
2023-04-29T05:46:44.566Z,99885.97
2023-04-29T05:49:12.618Z,99882.41
2023-04-29T05:51:40.490Z,99876.00
2023-04-29T05:54:08.384Z,99876.03
2023-04-29T05:56:37.758Z,99877.50
2023-04-29T05:59:05.712Z,99880.03
2023-04-29T06:01:34.031Z,99873.25
2023-04-29T06:04:02.296Z,99877.19
2023-04-29T06:06:30.510Z,99876.25
2023-04-29T06:08:58.521Z,99862.56
2023-04-29T06:11:26.852Z,99877.13
2023-04-29T06:13:56.200Z,99871.75
2023-04-29T06:16:24.951Z,99860.22
2023-04-29T06:18:52.830Z,99863.44
2023-04-29T06:21:20.804Z,99855.34
2023-04-29T06:23:48.875Z,99851.78
2023-04-29T06:26:16.790Z,99853.75
2023-04-29T06:28:44.763Z,99854.38
2023-04-29T06:31:14.430Z,99853.50
2023-04-29T06:33:42.427Z,99855.56
2023-04-29T06:36:10.320Z,99856.19
2023-04-29T06:38:38.396Z,99814.50
2023-04-29T06:41:06.424Z,99849.38
2023-04-29T06:43:34.312Z,99848.53
2023-04-29T06:46:02.238Z,99847.94
2023-04-29T06:48:31.510Z,99838.25
2023-04-29T06:51:00.007Z,99845.31
2023-04-29T06:53:28.162Z,99840.75
2023-04-29T06:55:56.041Z,99830.25
2023-04-29T06:58:23.954Z,99830.59
2023-04-29T07:00:52.736Z,99812.41
2023-04-29T07:03:20.720Z,99824.53
2023-04-29T07:05:50.150Z,99824.22
2023-04-29T07:08:18.076Z,99822.44
2023-04-29T07:10:45.984Z,99814.66
2023-04-29T07:13:13.926Z,99820.50
2023-04-29T07:15:42.289Z,99815.47
2023-04-29T07:18:10.491Z,99826.91
2023-04-29T07:20:38.536Z,99828.63
2023-04-29T07:23:07.843Z,99824.91
2023-04-29T07:25:36.010Z,99821.31
2023-04-29T07:28:04.201Z,99823.06
2023-04-29T07:30:32.351Z,99828.41
2023-04-29T07:33:00.487Z,99811.78
2023-04-29T07:35:28.710Z,99818.28
2023-04-29T07:37:57.244Z,99824.47
2023-04-29T07:40:26.710Z,99827.44
2023-04-29T07:42:54.688Z,99818.44
2023-04-29T07:45:22.574Z,99813.56
2023-04-29T07:47:50.543Z,99812.69
2023-04-29T07:50:18.607Z,99813.44
2023-04-29T07:52:46.492Z,99813.16
2023-04-29T07:55:14.544Z,99796.03
2023-04-29T07:57:43.793Z,99803.53
2023-04-29T08:00:12.448Z,99804.22
2023-04-29T08:02:40.618Z,99794.94
2023-04-29T08:05:09.368Z,99797.69
2023-04-29T08:07:37.604Z,99797.84
2023-04-29T08:10:06.279Z,99796.06
2023-04-29T08:12:34.311Z,99789.84
2023-04-29T08:15:04.854Z,99789.97
2023-04-29T08:17:32.883Z,99785.00
2023-04-29T08:20:00.863Z,99787.19
2023-04-29T08:22:28.791Z,99785.56
2023-04-29T08:24:57.679Z,99776.69
2023-04-29T08:27:25.750Z,99773.75
2023-04-29T08:29:53.758Z,99774.31
2023-04-29T08:32:23.728Z,99747.88
2023-04-29T08:34:51.899Z,99770.66
2023-04-29T08:37:20.774Z,99774.88
2023-04-29T08:39:49.100Z,99761.09
2023-04-29T08:42:22.307Z,99764.47
2023-04-29T08:44:51.918Z,99767.00
2023-04-29T08:47:20.077Z,99765.50
2023-04-29T08:49:49.530Z,99754.28
2023-04-29T08:52:17.539Z,99755.75
2023-04-29T08:54:45.500Z,99750.06
2023-04-29T08:57:14.566Z,99757.94
2023-04-29T08:59:43.451Z,99749.44
2023-04-29T09:02:17.218Z,99748.50
2023-04-29T09:04:54.437Z,99751.22
2023-04-29T09:07:23.157Z,99743.81
2023-04-29T09:09:52.866Z,99747.34
2023-04-29T09:12:21.145Z,99736.84
2023-04-29T09:14:49.081Z,99736.09
2023-04-29T09:17:18.313Z,99735.03
2023-04-29T09:19:46.359Z,99729.78
2023-04-29T09:22:16.221Z,99723.50
2023-04-29T09:24:45.666Z,99717.38
2023-04-29T09:27:29.015Z,99715.78
2023-04-29T09:30:02.432Z,99719.78
2023-04-29T09:32:30.491Z,99716.59
2023-04-29T09:34:58.357Z,99704.00
2023-04-29T09:37:28.857Z,99698.19
2023-04-29T09:39:56.848Z,99685.66
2023-04-29T09:42:24.839Z,99690.38
2023-04-29T09:44:54.614Z,99684.69
2023-04-29T09:47:31.326Z,99682.84
2023-04-29T09:50:13.689Z,99677.84
2023-04-29T09:52:43.296Z,99677.06
2023-04-29T09:55:12.723Z,99669.38
2023-04-29T09:57:44.265Z,99661.41
2023-04-29T10:00:14.691Z,99661.13
2023-04-29T10:02:44.115Z,99663.00
2023-04-29T10:05:13.387Z,99650.50
2023-04-29T10:07:43.851Z,99629.53
2023-04-29T10:10:13.724Z,99636.31
2023-04-29T10:12:42.362Z,99644.41
2023-04-29T10:15:21.820Z,99638.41
2023-04-29T10:17:53.997Z,99641.88
2023-04-29T10:20:24.373Z,99635.28
2023-04-29T10:22:56.536Z,99631.00
2023-04-29T10:25:26.354Z,99616.63
2023-04-29T10:27:54.205Z,99626.53
2023-04-29T10:30:23.083Z,99630.22
2023-04-29T10:32:52.906Z,99607.91
2023-04-29T10:35:25.765Z,99610.69
2023-04-29T10:37:57.317Z,99613.03
2023-04-29T10:40:32.360Z,99619.09
2023-04-29T10:43:00.931Z,99613.19
2023-04-29T10:45:31.817Z,99603.31
2023-04-29T10:48:16.400Z,99606.69
2023-04-29T10:51:08.188Z,99599.53
2023-04-29T10:53:38.385Z,99610.03
2023-04-29T10:56:09.719Z,99601.66
2023-04-29T10:58:45.458Z,99598.56
2023-04-29T11:01:15.295Z,99589.22
2023-04-29T11:03:48.320Z,99580.69
2023-04-29T11:06:16.688Z,99579.44
2023-04-29T11:08:45.965Z,99574.13
2023-04-29T11:11:15.559Z,99573.97
2023-04-29T11:13:47.318Z,99573.69
2023-04-29T11:16:15.511Z,99573.72
2023-04-29T11:19:07.952Z,99568.63
2023-04-29T11:21:36.690Z,99565.84
2023-04-29T11:24:07.865Z,99557.03
2023-04-29T11:26:36.124Z,99550.47
2023-04-29T11:29:04.177Z,99544.34
2023-04-29T11:31:33.110Z,99545.25
2023-04-29T11:34:01.546Z,99540.31
2023-04-29T11:36:29.572Z,99524.88
2023-04-29T11:38:57.473Z,99535.22
2023-04-29T11:41:27.678Z,99539.03
2023-04-29T11:43:59.708Z,99529.59
2023-04-29T11:46:28.912Z,99529.75
2023-04-29T11:48:59.957Z,99509.94
2023-04-29T11:51:28.631Z,99524.69
2023-04-29T11:53:57.777Z,99523.97
2023-04-29T11:56:27.636Z,99521.16
2023-04-29T11:58:57.346Z,99518.25
2023-04-29T12:01:26.960Z,99510.38
2023-04-29T12:04:01.156Z,99503.63
2023-04-29T12:06:30.933Z,99501.13
2023-04-29T12:09:00.825Z,99493.72
2023-04-29T12:11:30.154Z,99485.00
2023-04-29T12:13:58.533Z,99473.03
2023-04-29T12:16:29.393Z,99469.91
2023-04-29T12:18:58.722Z,99470.22
2023-04-29T12:21:27.547Z,99471.31
2023-04-29T12:23:55.643Z,99469.41
2023-04-29T12:26:24.924Z,99470.69
2023-04-29T12:28:59.180Z,99465.41
2023-04-29T12:31:34.773Z,99466.50
2023-04-29T12:34:06.843Z,99461.38
2023-04-29T12:36:37.758Z,99462.22
2023-04-29T12:39:08.422Z,99457.06
2023-04-29T12:41:42.680Z,99459.41
2023-04-29T12:44:12.388Z,99457.81
2023-04-29T12:46:41.883Z,99451.19
2023-04-29T12:49:09.943Z,99447.41
2023-04-29T12:51:37.898Z,99437.06
2023-04-29T12:54:07.351Z,99441.38
2023-04-29T12:56:35.468Z,99434.31
2023-04-29T12:59:08.180Z,99432.56
2023-04-29T13:01:37.703Z,99428.88
2023-04-29T13:04:09.010Z,99425.19
2023-04-29T13:06:39.613Z,99424.13
2023-04-29T13:09:17.474Z,99425.94
2023-04-29T13:11:46.560Z,99416.00
2023-04-29T13:14:14.479Z,99415.88
2023-04-29T13:16:44.611Z,99421.53
2023-04-29T13:19:28.157Z,99423.63
2023-04-29T13:22:00.597Z,99417.91
2023-04-29T13:24:28.556Z,99412.97
2023-04-29T13:26:56.515Z,99405.34
2023-04-29T13:29:24.515Z,99408.50
2023-04-29T13:31:53.808Z,99409.19
2023-04-29T13:34:21.816Z,99404.34
2023-04-29T13:36:49.824Z,99400.59
2023-04-29T13:39:17.738Z,99401.34
2023-04-29T13:41:46.403Z,99393.16
2023-04-29T13:44:27.363Z,99387.53
2023-04-29T13:47:02.775Z,99389.34
2023-04-29T13:52:54.251Z,99393.50
2023-04-29T13:55:21.764Z,99373.31
2023-04-29T13:58:31.085Z,99382.88
2023-04-29T14:05:33.556Z,99369.97
2023-04-29T14:08:01.867Z,99371.38
2023-04-29T14:10:29.923Z,99370.19
2023-04-29T14:12:57.796Z,99363.41
2023-04-29T14:15:25.933Z,99364.00
2023-04-29T14:17:55.202Z,99357.94
2023-04-29T14:20:24.748Z,99355.81
2023-04-29T14:22:53.141Z,99345.91
2023-04-29T14:25:21.117Z,99357.66
2023-04-29T14:27:49.324Z,99334.16
2023-04-29T14:30:17.285Z,99340.78
2023-04-29T14:32:45.457Z,99347.72
2023-04-29T14:35:13.413Z,99347.28
2023-04-29T14:37:42.718Z,99346.66
2023-04-29T14:40:11.048Z,99344.44
2023-04-29T14:42:38.965Z,99351.56
2023-04-29T14:45:08.057Z,99354.75
2023-04-29T14:47:36.068Z,99344.94
2023-04-29T14:50:04.348Z,99348.28
2023-04-29T14:52:32.300Z,99332.91
2023-04-29T14:55:01.584Z,99343.19
2023-04-29T14:57:30.047Z,99349.53
2023-04-29T14:59:58.065Z,99341.41
2023-04-29T15:02:26.417Z,99341.75
2023-04-29T15:04:54.573Z,99343.84
2023-04-29T15:07:22.985Z,99330.94
2023-04-29T15:09:50.977Z,99335.53
2023-04-29T15:12:21.225Z,99326.88
2023-04-29T15:14:49.144Z,99325.47
2023-04-29T15:17:17.185Z,99331.97
2023-04-29T15:19:45.124Z,99336.38
2023-04-29T15:22:13.075Z,99335.53
2023-04-29T15:24:40.952Z,99335.75
2023-04-29T15:27:08.859Z,99343.97
2023-04-29T15:29:38.620Z,99342.44
2023-04-29T15:32:07.218Z,99343.78
2023-04-29T15:34:35.270Z,99329.34
2023-04-29T15:37:03.388Z,99341.22
2023-04-29T15:39:31.242Z,99333.81
2023-04-29T15:42:00.349Z,99342.13
2023-04-29T15:44:28.376Z,99340.31
2023-04-29T15:46:57.646Z,99332.34
2023-04-29T15:49:25.667Z,99336.50
2023-04-29T15:51:53.565Z,99329.09
2023-04-29T15:54:21.469Z,99330.44
2023-04-29T15:56:49.370Z,99330.06
2023-04-29T15:59:17.409Z,99327.69
2023-04-29T16:01:45.369Z,99314.41
2023-04-29T16:04:14.670Z,99328.16
2023-04-29T16:06:42.600Z,99332.38
2023-04-29T16:09:12.189Z,99326.69
2023-04-29T16:11:40.242Z,99334.00
2023-04-29T16:14:08.293Z,99332.63
2023-04-29T16:16:36.282Z,99332.25
2023-04-29T16:19:04.403Z,99335.75
2023-04-29T16:21:34.120Z,99326.53
2023-04-29T16:24:02.069Z,99331.00
2023-04-29T16:26:30.300Z,99336.03
2023-04-29T16:28:58.173Z,99339.88
2023-04-29T16:31:26.256Z,99335.97
2023-04-29T16:33:57.054Z,99342.06
2023-04-29T16:36:25.098Z,99347.00
2023-04-29T16:38:55.109Z,99348.19
2023-04-29T16:41:24.113Z,99347.38
2023-04-29T16:43:52.090Z,99343.56
2023-04-29T16:46:20.120Z,99348.25
2023-04-29T16:48:50.835Z,99353.03
2023-04-29T16:51:19.009Z,99355.00
2023-04-29T16:53:46.952Z,99355.81
2023-04-29T16:56:16.319Z,99360.69
2023-04-29T16:58:44.326Z,99361.47
2023-04-29T17:01:12.473Z,99364.69
2023-04-29T17:03:40.616Z,99364.75
2023-04-29T17:06:08.742Z,99365.75
2023-04-29T17:08:36.872Z,99356.72
2023-04-29T17:11:06.306Z,99361.56
2023-04-29T17:13:35.664Z,99367.50
2023-04-29T17:16:03.803Z,99360.56
2023-04-29T17:18:31.857Z,99375.00
2023-04-29T17:21:00.695Z,99364.09
2023-04-29T17:23:28.738Z,99376.13
2023-04-29T17:25:57.164Z,99372.44
2023-04-29T17:28:25.428Z,99368.47
2023-04-29T17:30:59.650Z,99373.59
2023-04-29T17:33:33.870Z,99379.59
2023-04-29T17:36:02.311Z,99385.97
2023-04-29T17:38:30.748Z,99383.53
2023-04-29T17:40:58.696Z,99383.22
2023-04-29T17:43:27.287Z,99385.06
2023-04-29T17:45:59.436Z,99384.06
2023-04-29T17:48:27.485Z,99390.59
2023-04-29T17:50:55.588Z,99385.63
2023-04-29T17:53:23.444Z,99389.03
2023-04-29T17:55:51.447Z,99394.81
2023-04-29T17:58:19.388Z,99391.19
2023-04-29T18:00:47.371Z,99388.34
2023-04-29T18:03:16.802Z,99399.75
2023-04-29T18:05:46.384Z,99393.63
2023-04-29T18:08:14.505Z,99400.91
2023-04-29T18:10:42.455Z,99398.75
2023-04-29T18:13:10.365Z,99399.41
2023-04-29T18:15:38.306Z,99398.75
2023-04-29T18:18:06.457Z,99400.28
2023-04-29T18:20:36.354Z,99411.03
2023-04-29T18:23:04.255Z,99406.13
2023-04-29T18:25:32.298Z,99411.75
2023-04-29T18:28:18.967Z,99412.06
2023-04-29T18:30:48.645Z,99420.00
2023-04-29T18:33:16.619Z,99419.22
2023-04-29T18:35:46.057Z,99422.19
2023-04-29T18:38:17.310Z,99417.72
2023-04-29T18:40:45.774Z,99426.69
2023-04-29T18:43:17.220Z,99421.44
2023-04-29T18:45:45.753Z,99423.44
2023-04-29T18:48:15.044Z,99428.66
2023-04-29T18:50:43.418Z,99432.81
2023-04-29T18:53:13.498Z,99420.31
2023-04-29T18:55:41.409Z,99438.28
2023-04-29T18:58:09.415Z,99443.41
2023-04-29T19:00:37.383Z,99444.06
2023-04-29T19:03:05.874Z,99444.41
2023-04-29T19:05:34.093Z,99446.03
2023-04-29T19:08:02.069Z,99441.38
2023-04-29T19:10:31.498Z,99445.31
2023-04-29T19:12:59.416Z,99446.63
2023-04-29T19:15:27.967Z,99449.78
2023-04-29T19:17:56.213Z,99450.72
2023-04-29T19:20:24.231Z,99456.69
2023-04-29T19:22:52.371Z,99451.88
2023-04-29T19:25:20.568Z,99455.16
2023-04-29T19:27:51.085Z,99449.75
2023-04-29T19:30:19.168Z,99440.97
2023-04-29T19:32:47.627Z,99464.22
2023-04-29T19:35:15.651Z,99460.44
2023-04-29T19:37:44.352Z,99472.28
2023-04-29T19:40:12.980Z,99476.59
2023-04-29T19:42:41.316Z,99478.25
2023-04-29T19:45:12.646Z,99485.63
2023-04-29T19:47:40.788Z,99481.66
2023-04-29T19:50:09.724Z,99480.66
2023-04-29T19:52:37.688Z,99480.59
2023-04-29T19:55:06.323Z,99472.03
2023-04-29T19:57:35.446Z,99465.84
2023-04-29T20:00:04.604Z,99452.78
2023-04-29T20:02:34.000Z,99466.84
2023-04-29T20:05:02.009Z,99450.81
2023-04-29T20:07:29.938Z,99450.47
2023-04-29T20:09:57.857Z,99446.00
2023-04-29T20:12:26.454Z,99450.00
2023-04-29T20:14:54.431Z,99448.53
2023-04-29T20:17:22.299Z,99452.69
2023-04-29T20:19:51.923Z,99459.94
2023-04-29T20:22:20.050Z,99461.78
2023-04-29T20:24:47.959Z,99467.03
2023-04-29T20:27:15.941Z,99462.59
2023-04-29T20:29:44.324Z,99459.63
2023-04-29T20:32:12.324Z,99462.09
2023-04-29T20:34:40.422Z,99464.88
2023-04-29T20:37:09.946Z,99461.91
2023-04-29T20:39:37.942Z,99462.91
2023-04-29T20:42:06.115Z,99457.94
2023-04-29T20:44:34.768Z,99458.59
2023-04-29T20:47:03.709Z,99470.31
2023-04-29T20:49:31.660Z,99462.91
2023-04-29T20:51:59.725Z,99462.56
2023-04-29T20:54:29.062Z,99464.34
2023-04-29T20:56:56.979Z,99467.16
2023-04-29T20:59:24.936Z,99467.16
2023-04-29T21:01:52.844Z,99462.22
2023-04-29T21:04:21.205Z,99458.59
2023-04-29T21:06:52.690Z,99460.69
2023-04-29T21:09:21.441Z,99463.31
2023-04-29T21:11:51.184Z,99458.19
2023-04-29T21:14:19.064Z,99456.59
2023-04-29T21:16:47.038Z,99449.63
2023-04-29T21:19:14.988Z,99453.47
2023-04-29T21:21:43.804Z,99445.06
2023-04-29T21:24:11.751Z,99446.34
2023-04-29T21:26:39.860Z,99445.34
2023-04-29T21:29:09.299Z,99440.06
2023-04-29T21:31:37.341Z,99432.28
2023-04-29T21:34:06.166Z,99441.22
2023-04-29T21:36:34.126Z,99450.78
2023-04-29T21:39:02.030Z,99456.50
2023-04-29T21:41:31.985Z,99443.31
2023-04-29T21:44:01.575Z,99441.00
2023-04-29T21:46:33.309Z,99445.91
2023-04-29T21:49:02.171Z,99440.63
2023-04-29T21:51:31.776Z,99445.63
2023-04-29T21:53:59.704Z,99446.44
2023-04-29T21:56:27.737Z,99443.09
2023-04-29T21:58:55.574Z,99443.28
2023-04-29T22:01:48.097Z,99439.72
2023-04-29T22:04:17.678Z,99435.22
2023-04-29T22:06:46.080Z,99440.00
2023-04-29T22:09:14.494Z,99435.69
2023-04-29T22:11:42.454Z,99434.00
2023-04-29T22:14:10.337Z,99422.59
2023-04-29T22:16:38.424Z,99429.69
2023-04-29T22:19:07.220Z,99417.66
2023-04-29T22:21:38.158Z,99422.59
2023-04-29T22:24:06.696Z,99422.97
2023-04-29T22:26:34.642Z,99418.50
2023-04-29T22:29:02.681Z,99424.88
2023-04-29T22:31:30.658Z,99424.78
2023-04-29T22:33:58.523Z,99418.72
2023-04-29T22:36:27.387Z,99416.63
2023-04-29T22:38:56.645Z,99413.69
2023-04-29T22:41:24.588Z,99395.88
2023-04-29T22:43:57.142Z,99404.94
2023-04-29T22:46:25.568Z,99403.81
2023-04-29T22:48:53.628Z,99409.44
2023-04-29T22:51:21.583Z,99407.16
2023-04-29T22:53:49.586Z,99412.69
2023-04-29T22:56:18.864Z,99409.66
2023-04-29T22:58:46.734Z,99407.28
2023-04-29T23:01:14.753Z,99409.59
2023-04-29T23:03:42.722Z,99402.41
2023-04-29T23:06:10.713Z,99396.69
2023-04-29T23:08:38.656Z,99387.41
2023-04-29T23:11:06.655Z,99403.59
2023-04-29T23:13:35.961Z,99415.69
2023-04-29T23:16:03.947Z,99404.66
2023-04-29T23:18:32.024Z,99407.38
2023-04-29T23:21:00.036Z,99411.22
2023-04-29T23:23:28.321Z,99387.84
2023-04-29T23:25:56.246Z,99417.50
2023-04-29T23:28:24.946Z,99414.56
2023-04-29T23:30:54.567Z,99404.19
2023-04-29T23:33:22.582Z,99411.97
2023-04-29T23:35:51.031Z,99414.19
2023-04-29T23:38:19.678Z,99411.13
2023-04-29T23:40:48.120Z,99407.28
2023-04-29T23:43:16.144Z,99405.50
2023-04-29T23:45:45.779Z,99405.28
2023-04-29T23:48:16.146Z,99400.78
2023-04-29T23:50:44.077Z,99406.13
2023-04-29T23:53:11.991Z,99394.56
2023-04-29T23:55:39.967Z,99390.06
2023-04-29T23:58:08.649Z,99389.50
